createdAt,value
2022-10-02T00:00:14.550Z,3.22
2022-10-02T00:00:26.420Z,4.57
2022-10-02T00:00:39.875Z,4.50
2022-10-02T00:00:54.822Z,7.38
2022-10-02T00:01:17.110Z,11.38
2022-10-02T00:01:47.683Z,4.83
2022-10-02T00:02:24.340Z,7.57
2022-10-02T00:02:41.296Z,2.95
2022-10-02T00:03:16.307Z,5.28
2022-10-02T00:03:32.209Z,5.65
2022-10-02T00:03:45.726Z,3.58
2022-10-02T00:03:58.449Z,3.83
2022-10-02T00:04:15.902Z,5.65
2022-10-02T00:04:54.283Z,5.82
2022-10-02T00:05:32.706Z,5.20
2022-10-02T00:05:53.040Z,5.00
2022-10-02T00:06:22.419Z,4.07
2022-10-02T00:06:43.194Z,5.68
2022-10-02T00:07:00.201Z,4.78
2022-10-02T00:07:14.721Z,6.10
2022-10-02T00:07:36.241Z,5.65
2022-10-02T00:08:10.281Z,3.80
2022-10-02T00:08:31.958Z,5.47
2022-10-02T00:08:46.212Z,6.90
2022-10-02T00:09:03.449Z,8.25
2022-10-02T00:09:33.948Z,5.57
2022-10-02T00:09:56.508Z,3.92
2022-10-02T00:10:21.284Z,5.22
2022-10-02T00:10:37.386Z,5.00
2022-10-02T00:10:54.670Z,8.05
2022-10-02T00:11:16.357Z,7.07
2022-10-02T00:11:43.523Z,4.93
2022-10-02T00:11:58.842Z,7.57
2022-10-02T00:12:14.189Z,6.05
2022-10-02T00:12:29.540Z,4.95
2022-10-02T00:12:41.673Z,5.50
2022-10-02T00:12:58.597Z,6.30
2022-10-02T00:13:37.439Z,7.15
2022-10-02T00:13:54.169Z,3.10
2022-10-02T00:14:13.634Z,4.88
2022-10-02T00:14:31.311Z,6.05
2022-10-02T00:14:45.767Z,5.72
2022-10-02T00:15:14.735Z,6.68
2022-10-02T00:15:29.831Z,4.93
2022-10-02T00:15:42.507Z,6.03
2022-10-02T00:15:55.485Z,6.05
2022-10-02T00:16:16.987Z,5.80
2022-10-02T00:16:35.063Z,4.32
2022-10-02T00:16:51.501Z,5.70
2022-10-02T00:17:04.092Z,6.30
2022-10-02T00:17:24.013Z,4.88
2022-10-02T00:17:42.306Z,3.78
2022-10-02T00:17:59.878Z,5.03
2022-10-02T00:18:16.025Z,4.47
2022-10-02T00:18:34.647Z,4.18
2022-10-02T00:18:48.847Z,5.65
2022-10-02T00:19:01.103Z,5.65
2022-10-02T00:19:17.319Z,6.28
2022-10-02T00:19:29.266Z,5.32
2022-10-02T00:19:41.175Z,3.97
2022-10-02T00:19:55.553Z,4.75
2022-10-02T00:20:20.196Z,4.55
2022-10-02T00:20:46.216Z,5.18
2022-10-02T00:21:20.407Z,6.90
2022-10-02T00:21:43.855Z,4.70
2022-10-02T00:22:01.765Z,6.35
2022-10-02T00:22:24.696Z,4.93
2022-10-02T00:22:42.891Z,3.45
2022-10-02T00:23:06.837Z,3.08
2022-10-02T00:23:45.187Z,4.78
2022-10-02T00:24:00.517Z,4.82
2022-10-02T00:24:17.761Z,4.40
2022-10-02T00:24:47.619Z,5.93
2022-10-02T00:25:10.120Z,5.72
2022-10-02T00:25:27.731Z,4.95
2022-10-02T00:25:54.397Z,5.18
2022-10-02T00:26:18.832Z,4.40
2022-10-02T00:26:33.844Z,4.68
2022-10-02T00:26:57.938Z,5.78
2022-10-02T00:27:27.227Z,5.32
2022-10-02T00:27:41.814Z,5.75
2022-10-02T00:28:11.800Z,5.05
2022-10-02T00:28:29.105Z,6.07
2022-10-02T00:28:49.232Z,6.38
2022-10-02T00:29:27.891Z,6.30
2022-10-02T00:29:49.956Z,8.30
2022-10-02T00:30:03.786Z,6.55
2022-10-02T00:30:18.011Z,5.57
2022-10-02T00:30:38.490Z,5.13
2022-10-02T00:31:05.865Z,5.47
2022-10-02T00:31:33.429Z,6.28
2022-10-02T00:31:45.390Z,3.75
2022-10-02T00:32:11.533Z,3.70
2022-10-02T00:32:43.326Z,6.60
2022-10-02T00:33:32.444Z,6.28
2022-10-02T00:34:11.764Z,6.50
2022-10-02T00:34:54.079Z,6.53
2022-10-02T00:35:35.139Z,3.80
2022-10-02T00:35:52.798Z,5.40
2022-10-02T00:36:07.644Z,5.25
2022-10-02T00:36:52.843Z,6.82
2022-10-02T00:37:23.710Z,3.92
2022-10-02T00:38:04.601Z,3.97
2022-10-02T00:38:25.389Z,5.53
2022-10-02T00:38:45.707Z,5.28
2022-10-02T00:39:33.885Z,5.55
2022-10-02T00:40:02.245Z,3.65
2022-10-02T00:40:38.855Z,10.55
2022-10-02T00:41:44.248Z,6.65
2022-10-02T00:42:10.940Z,5.63
2022-10-02T00:42:37.593Z,4.38
2022-10-02T00:42:55.037Z,6.43
2022-10-02T00:43:18.687Z,5.40
2022-10-02T00:43:38.387Z,4.30
2022-10-02T00:43:50.317Z,4.43
2022-10-02T00:44:14.262Z,4.30
2022-10-02T00:44:47.667Z,4.82
2022-10-02T00:45:37.146Z,4.90
2022-10-02T00:45:49.029Z,6.35
2022-10-02T00:46:30.052Z,5.35
2022-10-02T00:46:48.811Z,3.72
2022-10-02T00:47:10.292Z,5.10
2022-10-02T00:47:40.655Z,4.90
2022-10-02T00:48:17.244Z,4.70
2022-10-02T00:48:40.251Z,6.47
2022-10-02T00:49:22.955Z,5.43
2022-10-02T00:49:56.984Z,5.35
2022-10-02T00:50:27.417Z,6.35
2022-10-02T00:51:25.265Z,5.22
2022-10-02T00:51:45.896Z,4.25
2022-10-02T00:52:05.562Z,5.75
2022-10-02T00:52:32.515Z,6.72
2022-10-02T00:53:13.409Z,5.05
2022-10-02T00:53:33.881Z,5.78
2022-10-02T00:54:24.117Z,2.78
2022-10-02T00:54:57.270Z,4.40
2022-10-02T00:55:27.168Z,3.58
2022-10-02T00:56:04.957Z,3.15
2022-10-02T00:56:31.031Z,3.35
2022-10-02T00:57:08.957Z,3.88
2022-10-02T00:57:30.851Z,3.22
2022-10-02T00:57:59.882Z,4.22
2022-10-02T00:58:40.547Z,6.90
2022-10-02T00:58:59.970Z,5.10
2022-10-02T00:59:34.527Z,4.78
2022-10-02T01:00:01.333Z,3.67
2022-10-02T01:00:18.491Z,3.58
2022-10-02T01:00:31.597Z,2.92
2022-10-02T01:00:55.704Z,4.07
2022-10-02T01:01:16.678Z,2.47
2022-10-02T01:01:53.571Z,3.78
2022-10-02T01:02:13.840Z,5.60
2022-10-02T01:02:31.756Z,5.22
2022-10-02T01:03:02.154Z,3.70
2022-10-02T01:03:41.022Z,4.15
2022-10-02T01:03:56.498Z,2.88
2022-10-02T01:04:15.503Z,4.63
2022-10-02T01:04:33.891Z,4.95
2022-10-02T01:04:47.988Z,5.10
2022-10-02T01:05:03.371Z,4.70
2022-10-02T01:05:16.075Z,5.00
2022-10-02T01:05:28.119Z,4.18
2022-10-02T01:05:40.197Z,4.60
2022-10-02T01:05:52.532Z,4.43
2022-10-02T01:06:05.100Z,6.40
2022-10-02T01:06:17.069Z,5.47
2022-10-02T01:06:29.186Z,3.20
2022-10-02T01:06:41.871Z,2.22
2022-10-02T01:06:54.703Z,2.47
2022-10-02T01:07:10.546Z,4.03
2022-10-02T01:07:22.482Z,4.00
2022-10-02T01:07:40.993Z,3.70
2022-10-02T01:07:54.667Z,2.83
2022-10-02T01:08:07.823Z,2.75
2022-10-02T01:08:19.864Z,3.60
2022-10-02T01:08:32.468Z,4.95
2022-10-02T01:08:44.383Z,6.15
2022-10-02T01:08:56.412Z,5.60
2022-10-02T01:09:08.362Z,4.53
2022-10-02T01:09:20.487Z,3.50
2022-10-02T01:09:33.111Z,3.80
2022-10-02T01:09:46.139Z,3.78
2022-10-02T01:09:58.388Z,5.65
2022-10-02T01:10:13.235Z,6.25
2022-10-02T01:10:26.128Z,4.90
2022-10-02T01:10:39.515Z,3.75
2022-10-02T01:10:51.716Z,4.05
2022-10-02T01:11:05.576Z,4.80
2022-10-02T01:11:17.918Z,4.70
2022-10-02T01:11:31.353Z,4.05
2022-10-02T01:11:44.906Z,3.58
2022-10-02T01:11:56.991Z,4.35
2022-10-02T01:12:09.380Z,4.20
2022-10-02T01:12:22.962Z,3.65
2022-10-02T01:12:35.088Z,4.10
2022-10-02T01:12:47.016Z,4.20
2022-10-02T01:12:59.188Z,4.68
2022-10-02T01:13:11.075Z,3.20
2022-10-02T01:13:23.200Z,3.15
2022-10-02T01:13:35.166Z,2.78
2022-10-02T01:13:47.839Z,4.22
2022-10-02T01:14:00.097Z,5.32
2022-10-02T01:14:12.476Z,5.93
2022-10-02T01:14:39.063Z,7.13
2022-10-02T01:14:50.934Z,3.03
2022-10-02T01:15:14.265Z,2.75
2022-10-02T01:15:37.380Z,4.07
2022-10-02T01:15:54.755Z,4.45
2022-10-02T01:16:11.708Z,3.58
2022-10-02T01:16:23.819Z,5.95
2022-10-02T01:16:36.125Z,5.80
2022-10-02T01:16:48.292Z,5.28
2022-10-02T01:17:01.053Z,4.50
2022-10-02T01:17:28.625Z,5.45
2022-10-02T01:17:41.797Z,3.75
2022-10-02T01:17:55.463Z,4.28
2022-10-02T01:18:07.574Z,4.22
2022-10-02T01:18:19.688Z,3.00
2022-10-02T01:18:31.869Z,3.72
2022-10-02T01:18:48.463Z,4.03
2022-10-02T01:19:00.448Z,3.38
2022-10-02T01:19:31.616Z,4.32
2022-10-02T01:19:43.497Z,4.30
2022-10-02T01:19:56.560Z,3.03
2022-10-02T01:20:19.190Z,2.55
2022-10-02T01:20:34.536Z,5.47
2022-10-02T01:20:54.413Z,4.97
2022-10-02T01:21:14.881Z,4.32
2022-10-02T01:21:36.825Z,4.70
2022-10-02T01:21:55.319Z,4.45
2022-10-02T01:22:19.048Z,5.72
2022-10-02T01:22:40.747Z,4.57
2022-10-02T01:22:58.964Z,5.63
2022-10-02T01:23:22.818Z,4.32
2022-10-02T01:23:55.742Z,3.67
2022-10-02T01:24:18.623Z,2.83
2022-10-02T01:24:36.814Z,3.30
2022-10-02T01:24:56.542Z,4.22
2022-10-02T01:25:08.879Z,5.47
2022-10-02T01:25:20.908Z,6.78
2022-10-02T01:25:33.092Z,5.93
2022-10-02T01:25:45.384Z,4.85
2022-10-02T01:25:58.758Z,5.20
2022-10-02T01:26:10.744Z,4.82
2022-10-02T01:26:22.780Z,3.50
2022-10-02T01:26:34.956Z,5.70
2022-10-02T01:26:47.223Z,6.90
2022-10-02T01:26:59.126Z,6.55
2022-10-02T01:27:11.003Z,5.78
2022-10-02T01:27:24.176Z,5.93
2022-10-02T01:27:39.366Z,6.10
2022-10-02T01:27:53.482Z,4.28
2022-10-02T01:28:05.981Z,3.40
2022-10-02T01:28:18.466Z,5.35
2022-10-02T01:28:30.849Z,5.20
2022-10-02T01:28:42.812Z,4.07
2022-10-02T01:28:54.938Z,4.05
2022-10-02T01:29:06.876Z,4.43
2022-10-02T01:29:18.815Z,3.95
2022-10-02T01:29:30.729Z,5.15
2022-10-02T01:29:45.796Z,4.43
2022-10-02T01:30:02.657Z,3.40
2022-10-02T01:30:17.923Z,4.05
2022-10-02T01:30:31.302Z,4.85
2022-10-02T01:30:47.610Z,5.38
2022-10-02T01:31:04.848Z,5.82
2022-10-02T01:31:17.232Z,7.75
2022-10-02T01:31:29.897Z,8.27
2022-10-02T01:31:42.932Z,8.40
2022-10-02T01:31:56.126Z,7.40
2022-10-02T01:32:08.350Z,7.00
2022-10-02T01:32:20.704Z,5.35
2022-10-02T01:32:35.150Z,4.70
2022-10-02T01:33:05.771Z,4.95
2022-10-02T01:33:18.375Z,7.78
2022-10-02T01:33:31.695Z,7.00
2022-10-02T01:33:45.216Z,4.97
2022-10-02T01:33:57.234Z,3.80
2022-10-02T01:34:10.033Z,3.17
2022-10-02T01:34:23.865Z,4.50
2022-10-02T01:34:37.052Z,5.07
2022-10-02T01:34:50.101Z,5.07
2022-10-02T01:35:03.047Z,6.40
2022-10-02T01:35:15.750Z,5.28
2022-10-02T01:35:33.690Z,4.95
2022-10-02T01:35:46.035Z,3.78
2022-10-02T01:35:58.288Z,3.45
2022-10-02T01:36:11.880Z,3.70
2022-10-02T01:36:23.844Z,3.83
2022-10-02T01:36:36.154Z,5.65
2022-10-02T01:36:48.486Z,7.18
2022-10-02T01:37:00.433Z,6.07
2022-10-02T01:37:12.899Z,4.72
2022-10-02T01:37:29.336Z,5.10
2022-10-02T01:37:44.098Z,6.72
2022-10-02T01:37:56.360Z,5.85
2022-10-02T01:38:14.479Z,4.15
2022-10-02T01:38:27.969Z,5.95
2022-10-02T01:38:41.733Z,7.22
2022-10-02T01:38:54.770Z,7.07
2022-10-02T01:39:06.974Z,6.55
2022-10-02T01:39:19.012Z,6.35
2022-10-02T01:39:30.987Z,6.35
2022-10-02T01:39:43.475Z,5.10
2022-10-02T01:39:59.827Z,4.30
2022-10-02T01:40:34.255Z,5.90
2022-10-02T01:40:46.133Z,7.32
2022-10-02T01:40:58.048Z,7.30
2022-10-02T01:41:11.409Z,6.97
2022-10-02T01:41:24.353Z,7.03
2022-10-02T01:41:42.923Z,7.00
2022-10-02T01:41:55.578Z,6.03
2022-10-02T01:42:07.508Z,5.15
2022-10-02T01:42:21.275Z,4.82
2022-10-02T01:42:34.069Z,5.72
2022-10-02T01:42:45.995Z,5.83
2022-10-02T01:43:05.383Z,4.70
2022-10-02T01:43:21.957Z,4.70
2022-10-02T01:43:47.166Z,6.70
2022-10-02T01:44:01.371Z,6.05
2022-10-02T01:44:15.672Z,7.93
2022-10-02T01:44:28.230Z,7.25
2022-10-02T01:44:40.421Z,5.50
2022-10-02T01:44:52.379Z,5.85
2022-10-02T01:45:07.134Z,7.18
2022-10-02T01:45:27.942Z,6.50
2022-10-02T01:46:16.855Z,5.13
2022-10-02T01:46:53.902Z,6.60
2022-10-02T01:47:12.635Z,7.53
2022-10-02T01:47:35.924Z,5.45
2022-10-02T01:48:13.758Z,4.47
2022-10-02T01:48:40.923Z,6.15
2022-10-02T01:49:11.421Z,5.82
2022-10-02T01:49:44.845Z,5.55
2022-10-02T01:50:27.685Z,5.57
2022-10-02T01:51:06.525Z,6.25
2022-10-02T01:51:39.063Z,6.03
2022-10-02T01:51:53.675Z,7.13
2022-10-02T01:52:27.139Z,7.32
2022-10-02T01:52:48.014Z,6.07
2022-10-02T01:53:10.694Z,5.63
2022-10-02T01:53:43.943Z,5.75
2022-10-02T01:54:07.957Z,8.07
2022-10-02T01:54:47.360Z,8.75
2022-10-02T01:55:22.073Z,4.45
2022-10-02T01:56:01.118Z,6.20
2022-10-02T01:56:37.421Z,4.13
2022-10-02T01:56:55.503Z,7.00
2022-10-02T01:57:34.612Z,6.80
2022-10-02T01:57:54.304Z,5.40
2022-10-02T01:58:17.122Z,5.47
2022-10-02T01:58:48.179Z,4.38
2022-10-02T01:59:05.149Z,5.60
2022-10-02T01:59:35.985Z,5.40
2022-10-02T01:59:57.294Z,6.05
2022-10-02T02:00:26.705Z,7.78
2022-10-02T02:00:51.782Z,4.80
2022-10-02T02:01:25.130Z,4.43
2022-10-02T02:01:52.536Z,5.18
2022-10-02T02:02:18.520Z,5.75
2022-10-02T02:02:58.848Z,3.90
2022-10-02T02:03:37.561Z,6.13
2022-10-02T02:03:55.463Z,7.10
2022-10-02T02:04:15.455Z,5.82
2022-10-02T02:04:37.765Z,5.70
2022-10-02T02:05:32.093Z,5.75
2022-10-02T02:05:50.201Z,4.18
2022-10-02T02:06:04.870Z,4.60
2022-10-02T02:06:16.694Z,3.95
2022-10-02T02:06:54.888Z,4.38
2022-10-02T02:07:18.687Z,5.13
2022-10-02T02:08:08.969Z,6.97
2022-10-02T02:08:30.633Z,5.30
2022-10-02T02:09:04.037Z,5.82
2022-10-02T02:09:19.612Z,4.38
2022-10-02T02:10:04.122Z,4.47
2022-10-02T02:10:31.197Z,5.30
2022-10-02T02:10:58.398Z,6.10
2022-10-02T02:11:14.338Z,3.42
2022-10-02T02:11:26.473Z,2.80
2022-10-02T02:11:47.020Z,3.42
2022-10-02T02:12:13.055Z,5.15
2022-10-02T02:12:30.925Z,3.20
2022-10-02T02:12:54.268Z,2.78
2022-10-02T02:13:44.749Z,4.65
2022-10-02T02:14:11.523Z,4.00
2022-10-02T02:14:33.209Z,4.65
2022-10-02T02:14:53.263Z,4.82
2022-10-02T02:15:13.217Z,8.05
2022-10-02T02:15:43.133Z,5.80
2022-10-02T02:16:09.091Z,6.50
2022-10-02T02:16:31.429Z,5.57
2022-10-02T02:16:46.156Z,4.53
2022-10-02T02:17:17.723Z,5.90
2022-10-02T02:17:50.725Z,4.38
2022-10-02T02:18:14.824Z,5.75
2022-10-02T02:18:33.836Z,6.20
2022-10-02T02:18:56.604Z,3.85
2022-10-02T02:19:17.205Z,4.68
2022-10-02T02:19:39.384Z,4.45
2022-10-02T02:20:20.692Z,6.87
2022-10-02T02:20:57.019Z,5.63
2022-10-02T02:21:14.782Z,4.90
2022-10-02T02:21:33.654Z,4.35
2022-10-02T02:21:58.713Z,7.05
2022-10-02T02:22:17.340Z,4.10
2022-10-02T02:22:36.401Z,3.58
2022-10-02T02:22:52.707Z,3.90
2022-10-02T02:23:10.689Z,4.80
2022-10-02T02:23:28.288Z,5.67
2022-10-02T02:23:42.127Z,6.40
2022-10-02T02:23:57.523Z,6.38
2022-10-02T02:24:42.236Z,8.55
2022-10-02T02:25:04.654Z,4.82
2022-10-02T02:25:25.222Z,6.93
2022-10-02T02:25:45.110Z,5.40
2022-10-02T02:26:02.768Z,5.25
2022-10-02T02:26:18.770Z,4.32
2022-10-02T02:26:33.007Z,5.68
2022-10-02T02:26:46.920Z,5.18
2022-10-02T02:27:02.592Z,3.70
2022-10-02T02:27:19.759Z,4.57
2022-10-02T02:27:38.665Z,6.72
2022-10-02T02:27:57.933Z,7.97
2022-10-02T02:28:13.282Z,6.70
2022-10-02T02:28:29.419Z,6.15
2022-10-02T02:28:47.413Z,4.57
2022-10-02T02:29:08.066Z,5.13
2022-10-02T02:29:23.654Z,5.10
2022-10-02T02:29:38.754Z,4.97
2022-10-02T02:29:57.193Z,5.88
2022-10-02T02:30:14.320Z,6.13
2022-10-02T02:30:29.199Z,5.07
2022-10-02T02:30:45.533Z,5.00
2022-10-02T02:30:58.989Z,5.47
2022-10-02T02:31:17.882Z,6.13
2022-10-02T02:31:35.297Z,5.13
2022-10-02T02:31:53.209Z,6.15
2022-10-02T02:32:09.728Z,7.50
2022-10-02T02:32:26.802Z,5.97
2022-10-02T02:32:49.075Z,6.55
2022-10-02T02:33:23.051Z,7.85
2022-10-02T02:33:41.762Z,5.30
2022-10-02T02:34:01.452Z,3.92
2022-10-02T02:34:19.210Z,5.22
2022-10-02T02:34:47.594Z,5.43
2022-10-02T02:35:07.704Z,6.57
2022-10-02T02:35:30.873Z,6.47
2022-10-02T02:35:47.262Z,5.72
2022-10-02T02:36:04.697Z,6.28
2022-10-02T02:36:22.088Z,6.10
2022-10-02T02:36:39.250Z,5.85
2022-10-02T02:36:57.276Z,6.38
2022-10-02T02:37:16.355Z,6.53
2022-10-02T02:37:32.596Z,8.02
2022-10-02T02:37:48.376Z,7.53
2022-10-02T02:38:06.124Z,4.05
2022-10-02T02:38:25.791Z,3.97
2022-10-02T02:38:42.548Z,7.38
2022-10-02T02:39:00.428Z,6.78
2022-10-02T02:39:19.012Z,6.95
2022-10-02T02:39:46.864Z,6.25
2022-10-02T02:40:29.793Z,6.82
2022-10-02T02:40:44.745Z,3.65
2022-10-02T02:41:03.124Z,4.13
2022-10-02T02:41:27.124Z,4.70
2022-10-02T02:41:51.719Z,6.35
2022-10-02T02:42:06.782Z,7.93
2022-10-02T02:42:26.314Z,8.77
2022-10-02T02:42:46.016Z,5.32
2022-10-02T02:43:06.843Z,6.35
2022-10-02T02:43:25.397Z,6.80
2022-10-02T02:43:49.584Z,6.80
2022-10-02T02:44:08.638Z,6.25
2022-10-02T02:44:32.557Z,5.97
2022-10-02T02:44:49.975Z,5.20
2022-10-02T02:45:18.463Z,7.80
2022-10-02T02:45:37.657Z,5.65
2022-10-02T02:45:58.719Z,5.63
2022-10-02T02:46:20.549Z,4.03
2022-10-02T02:47:03.676Z,4.60
2022-10-02T02:47:22.473Z,6.55
2022-10-02T02:47:40.195Z,5.50
2022-10-02T02:47:57.676Z,5.40
2022-10-02T02:48:18.786Z,7.53
2022-10-02T02:48:36.782Z,5.93
2022-10-02T02:48:56.012Z,4.32
2022-10-02T02:49:11.797Z,6.15
2022-10-02T02:49:26.465Z,7.43
2022-10-02T02:49:44.235Z,6.07
2022-10-02T02:50:01.985Z,5.03
2022-10-02T02:50:37.193Z,4.30
2022-10-02T02:50:54.575Z,8.38
2022-10-02T02:51:17.669Z,7.50
2022-10-02T02:51:41.364Z,4.90
2022-10-02T02:51:56.272Z,7.43
2022-10-02T02:52:14.387Z,7.20
2022-10-02T02:52:47.314Z,5.07
2022-10-02T02:53:05.793Z,6.78
2022-10-02T02:53:23.185Z,6.50
2022-10-02T02:53:42.028Z,4.10
2022-10-02T02:54:07.594Z,6.68
2022-10-02T02:54:28.865Z,6.57
2022-10-02T02:54:47.036Z,7.57
2022-10-02T02:55:07.867Z,6.10
2022-10-02T02:55:26.003Z,5.30
2022-10-02T02:55:53.938Z,6.22
2022-10-02T02:56:09.882Z,5.47
2022-10-02T02:56:22.119Z,7.20
2022-10-02T02:56:35.043Z,9.63
2022-10-02T02:56:49.964Z,7.93
2022-10-02T02:57:05.327Z,7.68
2022-10-02T02:57:22.959Z,7.13
2022-10-02T02:57:51.145Z,6.07
2022-10-02T02:58:17.509Z,4.22
2022-10-02T02:58:54.150Z,7.28
2022-10-02T02:59:11.648Z,4.72
2022-10-02T02:59:28.822Z,4.07
2022-10-02T02:59:44.388Z,6.10
2022-10-02T03:00:00.379Z,5.35
2022-10-02T03:00:15.675Z,5.97
2022-10-02T03:00:27.939Z,6.22
2022-10-02T03:00:40.299Z,6.93
2022-10-02T03:00:52.368Z,6.43
2022-10-02T03:01:04.533Z,6.65
2022-10-02T03:01:16.501Z,6.13
2022-10-02T03:01:28.594Z,5.63
2022-10-02T03:01:42.072Z,5.40
2022-10-02T03:01:54.759Z,4.80
2022-10-02T03:02:06.772Z,5.68
2022-10-02T03:02:18.780Z,6.40
2022-10-02T03:02:30.851Z,7.18
2022-10-02T03:02:43.009Z,6.55
2022-10-02T03:02:55.516Z,6.88
2022-10-02T03:03:07.532Z,6.68
2022-10-02T03:03:19.452Z,6.55
2022-10-02T03:03:31.549Z,7.25
2022-10-02T03:03:43.469Z,6.68
2022-10-02T03:03:55.366Z,5.20
2022-10-02T03:04:12.356Z,4.57
2022-10-02T03:04:24.475Z,5.72
2022-10-02T03:04:36.394Z,8.80
2022-10-02T03:04:48.257Z,8.63
2022-10-02T03:05:00.275Z,7.35
2022-10-02T03:05:18.053Z,5.43
2022-10-02T03:05:31.472Z,4.43
2022-10-02T03:05:54.320Z,4.80
2022-10-02T03:06:25.536Z,5.32
2022-10-02T03:06:52.328Z,5.47
2022-10-02T03:07:05.580Z,6.72
2022-10-02T03:07:18.095Z,7.20
2022-10-02T03:07:30.111Z,6.65
2022-10-02T03:07:50.786Z,6.38
2022-10-02T03:08:12.006Z,7.38
2022-10-02T03:08:29.807Z,9.88
2022-10-02T03:08:43.144Z,6.53
2022-10-02T03:08:55.193Z,5.75
2022-10-02T03:09:13.632Z,7.63
2022-10-02T03:09:28.844Z,8.18
2022-10-02T03:09:40.997Z,6.63
2022-10-02T03:10:16.890Z,6.68
2022-10-02T03:10:53.359Z,6.13
2022-10-02T03:11:26.662Z,6.03
2022-10-02T03:12:06.260Z,6.90
2022-10-02T03:12:35.783Z,4.32
2022-10-02T03:12:59.550Z,5.57
2022-10-02T03:13:18.293Z,4.82
2022-10-02T03:13:57.924Z,6.88
2022-10-02T03:14:21.835Z,5.30
2022-10-02T03:14:48.064Z,6.50
2022-10-02T03:15:15.619Z,5.93
2022-10-02T03:15:45.917Z,9.18
2022-10-02T03:16:31.464Z,7.10
2022-10-02T03:16:58.628Z,8.43
2022-10-02T03:17:33.890Z,6.60
2022-10-02T03:18:13.544Z,5.65
2022-10-02T03:18:42.227Z,9.73
2022-10-02T03:19:06.688Z,6.70
2022-10-02T03:19:44.408Z,6.15
2022-10-02T03:20:14.559Z,5.80
2022-10-02T03:20:26.394Z,4.30
2022-10-02T03:20:46.884Z,6.72
2022-10-02T03:21:20.439Z,6.85
2022-10-02T03:21:54.779Z,5.47
2022-10-02T03:22:29.181Z,7.55
2022-10-02T03:23:01.269Z,7.00
2022-10-02T03:23:38.041Z,9.00
2022-10-02T03:24:23.755Z,4.90
2022-10-02T03:24:47.676Z,5.63
2022-10-02T03:25:23.764Z,6.93
2022-10-02T03:25:59.267Z,5.38
2022-10-02T03:26:38.608Z,7.00
2022-10-02T03:27:00.374Z,8.18
2022-10-02T03:27:18.728Z,6.18
2022-10-02T03:27:47.450Z,5.75
2022-10-02T03:28:43.395Z,4.05
2022-10-02T03:28:59.237Z,7.28
2022-10-02T03:29:19.059Z,5.70
2022-10-02T03:29:51.554Z,7.95
2022-10-02T03:30:07.103Z,5.25
2022-10-02T03:30:21.279Z,4.97
2022-10-02T03:30:35.587Z,5.47
2022-10-02T03:30:49.213Z,5.10
2022-10-02T03:31:01.493Z,5.25
2022-10-02T03:31:15.627Z,5.15
2022-10-02T03:31:32.974Z,8.02
2022-10-02T03:31:46.068Z,9.13
2022-10-02T03:32:00.215Z,5.78
2022-10-02T03:32:15.314Z,5.28
2022-10-02T03:32:28.501Z,15.38
2022-10-02T03:32:43.598Z,16.52
2022-10-02T03:32:57.273Z,9.07
2022-10-02T03:33:12.919Z,9.60
2022-10-02T03:33:26.151Z,8.80
2022-10-02T03:33:39.644Z,7.07
2022-10-02T03:33:53.771Z,9.90
2022-10-02T03:34:06.036Z,10.02
2022-10-02T03:34:18.923Z,7.07
2022-10-02T03:34:33.818Z,6.50
2022-10-02T03:34:47.820Z,6.40
2022-10-02T03:35:01.885Z,7.32
2022-10-02T03:35:15.108Z,6.70
2022-10-02T03:35:28.832Z,6.97
2022-10-02T03:35:42.327Z,7.30
2022-10-02T03:35:55.221Z,7.85
2022-10-02T03:36:07.481Z,6.72
2022-10-02T03:36:21.036Z,6.95
2022-10-02T03:36:33.646Z,8.75
2022-10-02T03:36:47.429Z,7.55
2022-10-02T03:37:00.594Z,7.38
2022-10-02T03:37:12.651Z,5.80
2022-10-02T03:37:25.844Z,4.15
2022-10-02T03:37:44.339Z,4.72
2022-10-02T03:38:00.165Z,6.45
2022-10-02T03:38:14.267Z,6.38
2022-10-02T03:38:28.721Z,6.78
2022-10-02T03:38:42.324Z,6.07
2022-10-02T03:39:23.811Z,7.45
2022-10-02T03:39:32.543Z,7.70
2022-10-02T03:39:45.267Z,8.05
2022-10-02T03:40:05.349Z,7.65
2022-10-02T03:40:17.372Z,9.27
2022-10-02T03:40:29.584Z,13.35
2022-10-02T03:40:42.848Z,15.80
2022-10-02T03:40:58.064Z,9.57
2022-10-02T03:41:10.006Z,5.97
2022-10-02T03:41:21.865Z,4.65
2022-10-02T03:41:46.276Z,6.65
2022-10-02T03:41:58.599Z,5.28
2022-10-02T03:42:13.408Z,6.45
2022-10-02T03:42:31.013Z,11.88
2022-10-02T03:42:43.181Z,13.77
2022-10-02T03:42:58.274Z,9.82
2022-10-02T03:43:19.864Z,7.65
2022-10-02T03:43:31.818Z,5.28
2022-10-02T03:43:43.730Z,7.65
2022-10-02T03:43:55.832Z,7.55
2022-10-02T03:44:08.298Z,6.85
2022-10-02T03:44:20.268Z,6.07
2022-10-02T03:44:32.157Z,7.03
2022-10-02T03:44:44.134Z,9.45
2022-10-02T03:44:56.031Z,8.85
2022-10-02T03:45:09.238Z,7.43
2022-10-02T03:45:46.302Z,6.05
2022-10-02T03:46:05.344Z,8.73
2022-10-02T03:46:17.310Z,6.40
2022-10-02T03:46:29.340Z,7.50
2022-10-02T03:46:41.349Z,9.40
2022-10-02T03:47:05.650Z,12.95
2022-10-02T03:47:17.625Z,12.95
2022-10-02T03:47:30.124Z,12.50
2022-10-02T03:47:42.024Z,9.98
2022-10-02T03:47:54.038Z,11.23
2022-10-02T03:48:05.893Z,9.35
2022-10-02T03:48:18.071Z,9.48
2022-10-02T03:48:29.943Z,8.68
2022-10-02T03:48:41.832Z,6.95
2022-10-02T03:48:56.355Z,6.63
2022-10-02T03:49:08.228Z,8.68
2022-10-02T03:49:20.097Z,8.38
2022-10-02T03:49:32.171Z,6.18
2022-10-02T03:49:44.130Z,6.05
2022-10-02T03:49:56.044Z,6.10
2022-10-02T03:50:09.268Z,7.57
2022-10-02T03:50:21.684Z,9.50
2022-10-02T03:50:36.415Z,8.82
2022-10-02T03:50:50.706Z,9.02
2022-10-02T03:51:02.608Z,7.43
2022-10-02T03:51:14.462Z,5.47
2022-10-02T03:51:26.407Z,6.90
2022-10-02T03:51:38.374Z,9.88
2022-10-02T03:51:50.317Z,10.15
2022-10-02T03:52:02.212Z,8.63
2022-10-02T03:52:17.322Z,9.05
2022-10-02T03:52:31.475Z,9.75
2022-10-02T03:52:44.998Z,9.48
2022-10-02T03:52:56.975Z,8.50
2022-10-02T03:53:20.437Z,5.57
2022-10-02T03:53:36.560Z,5.60
2022-10-02T03:53:48.460Z,7.57
2022-10-02T03:54:00.392Z,6.20
2022-10-02T03:54:17.721Z,4.57
2022-10-02T03:54:35.855Z,5.10
2022-10-02T03:54:51.229Z,6.25
2022-10-02T03:55:20.643Z,7.07
2022-10-02T03:55:37.565Z,5.18
2022-10-02T03:56:17.574Z,5.93
2022-10-02T03:56:39.405Z,5.75
2022-10-02T03:57:03.293Z,6.50
2022-10-02T03:57:21.181Z,6.43
2022-10-02T03:57:33.988Z,6.53
2022-10-02T03:57:47.459Z,6.68
2022-10-02T03:58:03.737Z,8.25
2022-10-02T03:58:17.258Z,8.45
2022-10-02T03:58:29.476Z,7.63
2022-10-02T03:58:46.608Z,7.90
2022-10-02T03:59:02.552Z,8.05
2022-10-02T03:59:20.968Z,7.18
2022-10-02T03:59:32.802Z,6.25
2022-10-02T03:59:53.661Z,5.85
2022-10-02T04:00:26.836Z,5.47
2022-10-02T04:00:51.162Z,12.25
2022-10-02T04:01:32.494Z,8.98
2022-10-02T04:01:49.348Z,7.20
2022-10-02T04:02:06.649Z,7.10
2022-10-02T04:03:04.810Z,7.07
2022-10-02T04:03:59.213Z,8.18
2022-10-02T04:04:20.027Z,5.00
2022-10-02T04:04:45.371Z,6.30
2022-10-02T04:05:06.568Z,11.00
2022-10-02T04:05:40.284Z,6.70
2022-10-02T04:06:11.878Z,5.80
2022-10-02T04:06:34.806Z,7.40
2022-10-02T04:07:04.720Z,7.53
2022-10-02T04:07:22.945Z,6.03
2022-10-02T04:07:39.920Z,6.80
2022-10-02T04:08:09.340Z,7.95
2022-10-02T04:08:38.119Z,7.55
2022-10-02T04:09:25.770Z,8.13
2022-10-02T04:09:53.951Z,8.10
2022-10-02T04:10:19.104Z,8.82
2022-10-02T04:10:49.948Z,8.25
2022-10-02T04:11:05.152Z,5.00
2022-10-02T04:11:27.737Z,4.63
2022-10-02T04:12:15.112Z,4.47
2022-10-02T04:12:41.375Z,7.10
2022-10-02T04:12:59.751Z,7.43
2022-10-02T04:13:21.459Z,7.15
2022-10-02T04:13:51.232Z,7.85
2022-10-02T04:14:15.177Z,7.97
2022-10-02T04:14:44.200Z,7.35
2022-10-02T04:15:19.196Z,8.65
2022-10-02T04:15:42.349Z,10.73
2022-10-02T04:16:06.423Z,11.02
2022-10-02T04:16:40.602Z,7.82
2022-10-02T04:17:03.655Z,7.75
2022-10-02T04:17:34.161Z,8.60
2022-10-02T04:17:58.201Z,9.48
2022-10-02T04:18:22.132Z,5.20
2022-10-02T04:18:41.532Z,5.82
2022-10-02T04:18:56.213Z,7.55
2022-10-02T04:19:46.726Z,6.80
2022-10-02T04:20:14.163Z,6.00
2022-10-02T04:20:37.193Z,8.45
2022-10-02T04:21:12.913Z,8.93
2022-10-02T04:21:54.514Z,5.65
2022-10-02T04:22:20.769Z,6.88
2022-10-02T04:22:39.693Z,5.90
2022-10-02T04:23:20.179Z,7.05
2022-10-02T04:23:32.023Z,9.02
2022-10-02T04:23:52.857Z,9.57
2022-10-02T04:24:17.762Z,6.70
2022-10-02T04:24:54.423Z,8.98
2022-10-02T04:25:19.647Z,6.55
2022-10-02T04:25:39.848Z,6.85
2022-10-02T04:25:57.873Z,5.90
2022-10-02T04:26:40.599Z,8.82
2022-10-02T04:27:15.340Z,6.78
2022-10-02T04:27:44.591Z,7.45
2022-10-02T04:28:01.173Z,10.30
2022-10-02T04:28:22.584Z,10.63
2022-10-02T04:28:41.413Z,7.78
2022-10-02T04:29:05.737Z,6.85
2022-10-02T04:29:27.932Z,9.52
2022-10-02T04:30:17.993Z,7.65
2022-10-02T04:30:30.148Z,6.55
2022-10-02T04:30:42.065Z,6.07
2022-10-02T04:30:54.083Z,4.88
2022-10-02T04:31:12.542Z,3.65
2022-10-02T04:31:27.250Z,6.80
2022-10-02T04:31:39.314Z,8.05
2022-10-02T04:32:00.481Z,6.97
2022-10-02T04:32:15.699Z,6.15
2022-10-02T04:32:36.224Z,5.93
2022-10-02T04:32:48.521Z,6.53
2022-10-02T04:33:19.803Z,6.72
2022-10-02T04:33:35.263Z,9.65
2022-10-02T04:33:50.305Z,8.45